createdAt,value
2023-04-22T00:00:43.165Z,99730.41
2023-04-22T00:03:11.952Z,99733.94
2023-04-22T00:05:40.483Z,99720.66
2023-04-22T00:08:09.298Z,99725.19
2023-04-22T00:10:37.717Z,99727.97
2023-04-22T00:13:05.627Z,99731.50
2023-04-22T00:15:33.698Z,99738.34
2023-04-22T00:18:02.058Z,99736.91
2023-04-22T00:20:32.636Z,99743.72
2023-04-22T00:23:00.640Z,99740.66
2023-04-22T00:25:28.897Z,99725.84
2023-04-22T00:27:56.806Z,99744.00
2023-04-22T00:30:24.828Z,99744.31
2023-04-22T00:32:53.749Z,99729.31
2023-04-22T00:35:21.736Z,99741.22
2023-04-22T00:37:49.730Z,99745.50
2023-04-22T00:40:18.045Z,99743.78
2023-04-22T00:42:49.377Z,99744.31
2023-04-22T00:45:20.105Z,99741.87
2023-04-22T00:47:49.390Z,99743.75
2023-04-22T00:50:17.875Z,99737.59
2023-04-22T00:52:45.815Z,99741.44
2023-04-22T00:55:13.724Z,99740.44
2023-04-22T00:57:42.790Z,99737.81
2023-04-22T01:00:12.068Z,99746.03
2023-04-22T01:02:40.541Z,99736.31
2023-04-22T01:05:10.057Z,99739.06
2023-04-22T01:07:38.454Z,99740.13
2023-04-22T01:10:07.018Z,99747.25
2023-04-22T01:12:35.278Z,99745.38
2023-04-22T01:15:05.086Z,99740.88
2023-04-22T01:17:34.215Z,99741.19
2023-04-22T01:20:04.721Z,99741.34
2023-04-22T01:22:37.655Z,99742.59
2023-04-22T01:25:07.872Z,99738.81
2023-04-22T01:27:36.526Z,99731.28
2023-04-22T01:30:09.262Z,99738.22
2023-04-22T01:32:41.183Z,99735.03
2023-04-22T01:35:10.493Z,99731.22
2023-04-22T01:37:39.801Z,99731.34
2023-04-22T01:40:10.092Z,99728.97
2023-04-22T01:42:39.364Z,99713.00
2023-04-22T01:45:07.939Z,99721.78
2023-04-22T01:47:35.927Z,99725.66
2023-04-22T01:50:04.553Z,99733.19
2023-04-22T01:52:33.087Z,99730.28
2023-04-22T01:55:02.866Z,99727.13
2023-04-22T01:57:31.053Z,99724.56
2023-04-22T01:59:59.183Z,99715.59
2023-04-22T02:02:27.356Z,99725.47
2023-04-22T02:04:55.750Z,99731.69
2023-04-22T02:07:23.909Z,99729.88
2023-04-22T02:09:51.942Z,99722.50
2023-04-22T02:12:20.171Z,99729.47
2023-04-22T02:14:48.170Z,99727.28
2023-04-22T02:17:36.322Z,99730.69
2023-04-22T02:20:05.608Z,99730.47
2023-04-22T02:22:36.341Z,99733.50
2023-04-22T02:25:05.179Z,99732.38
2023-04-22T02:27:34.089Z,99743.38
2023-04-22T02:30:01.959Z,99735.25
2023-04-22T02:32:31.987Z,99738.94
2023-04-22T02:35:00.403Z,99738.91
2023-04-22T02:37:28.330Z,99742.63
2023-04-22T02:39:56.249Z,99739.41
2023-04-22T02:42:24.416Z,99746.53
2023-04-22T02:44:52.354Z,99742.09
2023-04-22T02:47:21.531Z,99745.03
2023-04-22T02:49:49.840Z,99750.34
2023-04-22T02:52:17.848Z,99745.12
2023-04-22T02:54:45.813Z,99716.44
2023-04-22T02:57:14.155Z,99747.47
2023-04-22T02:59:42.445Z,99744.63
2023-04-22T03:02:11.709Z,99746.62
2023-04-22T03:04:41.892Z,99742.59
2023-04-22T03:07:09.858Z,99750.13
2023-04-22T03:09:37.970Z,99727.72
2023-04-22T03:12:09.514Z,99750.81
2023-04-22T03:14:37.381Z,99751.00
2023-04-22T03:17:05.774Z,99747.06
2023-04-22T03:19:34.136Z,99758.00
2023-04-22T03:22:02.565Z,99738.75
2023-04-22T03:24:30.522Z,99746.16
2023-04-22T03:27:04.390Z,99747.44
2023-04-22T03:29:32.769Z,99751.09
2023-04-22T03:32:01.024Z,99726.69
2023-04-22T03:34:29.151Z,99747.53
2023-04-22T03:36:57.345Z,99749.59
2023-04-22T03:39:26.504Z,99747.72
2023-04-22T03:41:54.603Z,99752.94
2023-04-22T03:44:22.699Z,99731.66
2023-04-22T03:46:51.073Z,99760.13
2023-04-22T03:49:19.819Z,99762.72
2023-04-22T03:51:47.733Z,99766.34
2023-04-22T03:54:16.822Z,99767.28
2023-04-22T03:56:58.318Z,99772.34
2023-04-22T03:59:27.239Z,99762.69
2023-04-22T04:01:55.896Z,99774.00
2023-04-22T04:04:25.328Z,99761.22
2023-04-22T04:06:53.894Z,99743.41
2023-04-22T04:09:21.855Z,99767.81
2023-04-22T04:11:50.081Z,99769.66
2023-04-22T04:14:18.541Z,99764.37
2023-04-22T04:16:47.174Z,99768.31
2023-04-22T04:19:16.161Z,99769.78
2023-04-22T04:21:44.399Z,99764.97
2023-04-22T04:24:12.321Z,99757.66
2023-04-22T04:26:41.964Z,99761.94
2023-04-22T04:29:10.388Z,99758.41
2023-04-22T04:31:38.866Z,99764.97
2023-04-22T04:34:08.483Z,99759.94
2023-04-22T04:36:37.101Z,99768.19
2023-04-22T04:39:07.125Z,99743.34
2023-04-22T04:41:35.933Z,99762.88
2023-04-22T04:44:04.291Z,99765.09
2023-04-22T04:46:35.028Z,99767.69
2023-04-22T04:49:04.923Z,99776.22
2023-04-22T04:51:33.570Z,99773.16
2023-04-22T04:54:01.959Z,99768.84
2023-04-22T04:56:32.097Z,99777.25
2023-04-22T04:59:02.003Z,99770.56
2023-04-22T05:01:30.372Z,99772.81
2023-04-22T05:04:00.073Z,99771.00
2023-04-22T05:06:28.363Z,99777.97
2023-04-22T05:08:57.592Z,99766.75
2023-04-22T05:11:25.746Z,99773.31
2023-04-22T05:13:54.248Z,99773.22
2023-04-22T05:16:23.286Z,99774.47
2023-04-22T05:18:51.230Z,99770.03
2023-04-22T05:21:20.622Z,99771.81
2023-04-22T05:23:49.693Z,99762.31
2023-04-22T05:26:17.951Z,99767.88
2023-04-22T05:28:46.830Z,99766.06
2023-04-22T05:31:16.648Z,99774.81
2023-04-22T05:33:44.624Z,99770.50
2023-04-22T05:36:12.361Z,99757.66
2023-04-22T05:38:41.447Z,99757.47
2023-04-22T05:41:09.426Z,99763.03
2023-04-22T05:43:37.301Z,99761.22
2023-04-22T05:46:06.915Z,99756.87
2023-04-22T05:48:35.671Z,99759.56
2023-04-22T05:51:04.448Z,99757.47
2023-04-22T05:53:33.488Z,99769.22
2023-04-22T05:56:02.173Z,99761.00
2023-04-22T05:58:30.098Z,99754.41
2023-04-22T06:00:58.464Z,99759.81
2023-04-22T06:03:29.457Z,99762.16
2023-04-22T06:05:58.257Z,99752.94
2023-04-22T06:08:26.339Z,99748.47
2023-04-22T06:10:54.682Z,99762.72
2023-04-22T06:13:23.163Z,99751.38
2023-04-22T06:15:52.375Z,99757.28
2023-04-22T06:18:21.118Z,99752.28
2023-04-22T06:20:49.358Z,99753.03
2023-04-22T06:23:17.233Z,99749.56
2023-04-22T06:25:46.295Z,99755.28
2023-04-22T06:28:22.673Z,99756.69
2023-04-22T06:30:51.611Z,99766.34
2023-04-22T06:33:22.666Z,99759.66
2023-04-22T06:35:51.697Z,99759.59
2023-04-22T06:38:19.777Z,99756.38
2023-04-22T06:40:48.541Z,99740.78
2023-04-22T06:43:17.595Z,99751.09
2023-04-22T06:45:57.892Z,99744.38
2023-04-22T06:48:28.268Z,99735.38
2023-04-22T06:50:57.794Z,99743.09
2023-04-22T06:53:27.974Z,99744.97
2023-04-22T06:55:56.234Z,99748.53
2023-04-22T06:58:24.135Z,99746.53
2023-04-22T07:00:52.252Z,99733.91
2023-04-22T07:03:21.012Z,99746.34
2023-04-22T07:05:55.857Z,99743.94
2023-04-22T07:08:24.832Z,99742.28
2023-04-22T07:10:53.141Z,99743.28
2023-04-22T07:13:22.037Z,99742.28
2023-04-22T07:15:50.496Z,99740.72
2023-04-22T07:18:18.619Z,99754.38
2023-04-22T07:20:46.629Z,99752.91
2023-04-22T07:23:14.960Z,99752.78
2023-04-22T07:25:42.968Z,99739.19
2023-04-22T07:28:11.019Z,99742.06
2023-04-22T07:30:39.491Z,99738.16
2023-04-22T07:33:07.611Z,99733.22
2023-04-22T07:35:35.625Z,99738.66
2023-04-22T07:38:03.998Z,99733.94
2023-04-22T07:40:31.922Z,99724.56
2023-04-22T07:42:59.897Z,99726.97
2023-04-22T07:45:28.370Z,99727.16
2023-04-22T07:47:56.686Z,99731.72
2023-04-22T07:50:24.747Z,99730.84
2023-04-22T07:52:53.127Z,99725.03
2023-04-22T07:55:21.146Z,99726.22
2023-04-22T07:57:49.139Z,99722.56
2023-04-22T08:00:17.958Z,99727.44
2023-04-22T08:02:47.896Z,99739.81
2023-04-22T08:05:16.396Z,99746.44
2023-04-22T08:07:44.346Z,99749.63
2023-04-22T08:10:12.941Z,99745.59
2023-04-22T08:12:41.041Z,99736.72
2023-04-22T08:15:09.592Z,99752.59
2023-04-22T08:17:38.001Z,99751.84
2023-04-22T08:20:08.196Z,99750.81
2023-04-22T08:22:37.027Z,99749.69
2023-04-22T08:25:09.275Z,99735.97
2023-04-22T08:27:38.588Z,99735.31
2023-04-22T08:30:07.876Z,99735.91
2023-04-22T08:32:36.293Z,99733.03
2023-04-22T08:35:05.526Z,99730.34
2023-04-22T08:37:35.136Z,99728.66
2023-04-22T08:40:05.220Z,99747.50
2023-04-22T08:42:34.128Z,99739.91
2023-04-22T08:45:04.779Z,99738.78
2023-04-22T08:47:35.441Z,99722.41
2023-04-22T08:50:04.825Z,99724.13
2023-04-22T08:52:33.473Z,99727.53
2023-04-22T08:55:01.446Z,99728.47
2023-04-22T08:57:33.098Z,99724.81
2023-04-22T09:00:01.433Z,99740.31
2023-04-22T09:02:34.509Z,99755.69
2023-04-22T09:05:09.520Z,99751.22
2023-04-22T09:07:38.976Z,99753.72
2023-04-22T09:10:08.716Z,99748.66
2023-04-22T09:12:40.644Z,99759.97
2023-04-22T09:15:10.562Z,99761.62
2023-04-22T09:17:39.529Z,99754.41
2023-04-22T09:20:09.209Z,99746.28
2023-04-22T09:22:49.292Z,99736.69
2023-04-22T09:25:21.890Z,99720.19
2023-04-22T09:27:55.307Z,99712.50
2023-04-22T09:30:35.212Z,99729.19
2023-04-22T09:33:06.790Z,99725.16
2023-04-22T09:35:40.182Z,99725.41
2023-04-22T09:38:11.290Z,99745.91
2023-04-22T09:40:43.426Z,99745.53
2023-04-22T09:43:12.427Z,99745.62
2023-04-22T09:45:42.369Z,99752.97
2023-04-22T09:48:19.326Z,99742.31
2023-04-22T09:50:50.208Z,99739.97
2023-04-22T09:53:20.445Z,99729.19
2023-04-22T09:55:51.457Z,99735.38
2023-04-22T09:58:21.304Z,99726.00
2023-04-22T10:00:52.459Z,99725.38
2023-04-22T10:03:21.192Z,99725.78
2023-04-22T10:05:49.393Z,99725.81
2023-04-22T10:08:17.882Z,99722.72
2023-04-22T10:10:46.887Z,99733.69
2023-04-22T10:13:15.075Z,99738.41
2023-04-22T10:16:09.528Z,99733.13
2023-04-22T10:18:40.189Z,99747.47
2023-04-22T10:21:08.376Z,99751.03
2023-04-22T10:23:36.280Z,99743.75
2023-04-22T10:26:06.296Z,99744.91
2023-04-22T10:28:34.293Z,99740.31
2023-04-22T10:31:08.014Z,99745.62
2023-04-22T10:33:36.952Z,99736.97
2023-04-22T10:36:20.506Z,99744.94
2023-04-22T10:38:55.094Z,99736.44
2023-04-22T10:41:34.657Z,99738.31
2023-04-22T10:44:08.432Z,99741.37
2023-04-22T10:46:40.412Z,99744.50
2023-04-22T10:49:20.891Z,99739.66
2023-04-22T10:51:51.093Z,99742.59
2023-04-22T10:54:37.886Z,99739.75
2023-04-22T10:57:19.665Z,99752.00
2023-04-22T10:59:53.296Z,99748.00
2023-04-22T11:02:23.198Z,99748.75
2023-04-22T11:04:54.914Z,99734.47
2023-04-22T11:07:30.482Z,99746.44
2023-04-22T11:10:08.290Z,99749.00
2023-04-22T11:12:36.314Z,99743.22
2023-04-22T11:15:11.298Z,99748.97
2023-04-22T11:17:42.986Z,99742.94
2023-04-22T11:20:13.228Z,99731.84
2023-04-22T11:22:52.458Z,99715.88
2023-04-22T11:25:25.065Z,99717.25
2023-04-22T11:27:54.779Z,99721.00
2023-04-22T11:30:25.856Z,99723.69
2023-04-22T11:32:56.682Z,99729.59
2023-04-22T11:35:34.615Z,99727.44
2023-04-22T11:38:04.585Z,99730.91
2023-04-22T11:40:38.852Z,99730.75
2023-04-22T11:43:09.742Z,99739.50
2023-04-22T11:45:40.260Z,99745.78
2023-04-22T11:48:13.358Z,99749.22
2023-04-22T11:50:45.061Z,99737.03
2023-04-22T11:53:17.606Z,99745.03
2023-04-22T11:55:49.092Z,99732.34
2023-04-22T11:58:25.377Z,99721.31
2023-04-22T12:00:55.119Z,99727.41
2023-04-22T12:03:27.038Z,99733.09
2023-04-22T12:05:56.417Z,99725.38
2023-04-22T12:08:31.961Z,99722.50
2023-04-22T12:11:02.586Z,99728.34
2023-04-22T12:13:42.910Z,99725.38
2023-04-22T12:16:13.104Z,99729.34
2023-04-22T12:18:52.400Z,99728.09
2023-04-22T12:21:25.124Z,99725.38
2023-04-22T12:23:56.276Z,99713.09
2023-04-22T12:26:27.578Z,99715.00
2023-04-22T12:28:58.658Z,99710.78
2023-04-22T12:31:27.731Z,99708.06
2023-04-22T12:34:00.462Z,99709.72
2023-04-22T12:36:29.441Z,99715.62
2023-04-22T12:38:58.020Z,99717.50
2023-04-22T12:41:26.292Z,99714.59
2023-04-22T12:43:55.770Z,99720.09
2023-04-22T12:46:24.509Z,99716.75
2023-04-22T12:48:52.642Z,99719.87
2023-04-22T12:51:20.959Z,99718.78
2023-04-22T12:53:49.410Z,99720.00
2023-04-22T12:56:17.704Z,99713.69
2023-04-22T12:58:45.838Z,99714.53
2023-04-22T13:01:14.949Z,99712.69
2023-04-22T13:03:44.049Z,99718.66
2023-04-22T13:06:12.496Z,99709.56
2023-04-22T13:08:40.843Z,99702.13
2023-04-22T13:11:09.282Z,99704.97
2023-04-22T13:13:37.390Z,99710.50
2023-04-22T13:16:06.288Z,99721.66
2023-04-22T13:18:34.659Z,99719.44
2023-04-22T13:21:02.795Z,99725.69
2023-04-22T13:23:31.285Z,99720.97
2023-04-22T13:25:59.110Z,99733.56
2023-04-22T13:28:27.825Z,99737.91
2023-04-22T13:30:56.195Z,99721.81
2023-04-22T13:33:24.322Z,99722.78
2023-04-22T13:35:55.092Z,99717.19
2023-04-22T13:38:23.791Z,99718.75
2023-04-22T13:40:51.815Z,99713.19
2023-04-22T13:43:19.735Z,99702.22
2023-04-22T13:45:48.937Z,99715.47
2023-04-22T13:48:17.279Z,99709.97
2023-04-22T13:50:45.905Z,99711.75
2023-04-22T13:53:14.574Z,99704.63
2023-04-22T13:55:43.653Z,99715.56
2023-04-22T13:58:11.806Z,99731.59
2023-04-22T14:00:40.139Z,99722.12
2023-04-22T14:03:08.724Z,99731.94
2023-04-22T14:05:37.310Z,99723.78
2023-04-22T14:08:05.453Z,99731.34
2023-04-22T14:10:33.733Z,99733.34
2023-04-22T14:13:01.833Z,99731.44
2023-04-22T14:15:29.765Z,99731.56
2023-04-22T14:17:58.204Z,99735.91
2023-04-22T14:20:26.396Z,99734.66
2023-04-22T14:22:54.272Z,99730.00
2023-04-22T14:25:22.486Z,99729.06
2023-04-22T14:27:50.470Z,99717.91
2023-04-22T14:30:18.795Z,99722.88
2023-04-22T14:32:47.243Z,99716.56
2023-04-22T14:35:15.468Z,99727.63
2023-04-22T14:37:45.399Z,99716.56
2023-04-22T14:40:13.996Z,99724.22
2023-04-22T14:42:42.169Z,99727.34
2023-04-22T14:45:10.633Z,99731.72
2023-04-22T14:47:38.968Z,99735.78
2023-04-22T14:50:07.269Z,99737.91
2023-04-22T14:52:35.307Z,99735.22
2023-04-22T14:55:15.528Z,99740.72
2023-04-22T14:57:49.729Z,99734.47
2023-04-22T15:00:18.537Z,99743.16
2023-04-22T15:02:46.896Z,99743.28
2023-04-22T15:05:15.524Z,99744.13
2023-04-22T15:07:46.527Z,99744.50
2023-04-22T15:10:17.162Z,99742.06
2023-04-22T15:12:47.078Z,99746.78
2023-04-22T15:15:16.371Z,99742.78
2023-04-22T15:17:45.018Z,99747.25
2023-04-22T15:20:14.343Z,99748.31
2023-04-22T15:22:42.581Z,99750.78
2023-04-22T15:25:14.737Z,99758.50
2023-04-22T15:27:44.698Z,99763.38
2023-04-22T15:30:12.881Z,99771.31
2023-04-22T15:32:41.424Z,99772.13
2023-04-22T15:35:10.473Z,99780.72
2023-04-22T15:37:39.684Z,99777.38
2023-04-22T15:40:08.411Z,99776.56
2023-04-22T15:42:40.090Z,99781.34
2023-04-22T15:45:08.879Z,99779.91
2023-04-22T15:47:37.679Z,99776.19
2023-04-22T15:50:06.801Z,99770.63
2023-04-22T15:52:36.008Z,99773.91
2023-04-22T15:55:05.373Z,99775.66
2023-04-22T15:57:37.212Z,99777.41
2023-04-22T16:00:12.531Z,99770.09
2023-04-22T16:02:44.945Z,99777.53
2023-04-22T16:05:15.055Z,99768.44
2023-04-22T16:07:43.238Z,99771.13
2023-04-22T16:10:11.393Z,99768.91
2023-04-22T16:12:39.856Z,99772.03
2023-04-22T16:15:08.683Z,99772.97
2023-04-22T16:17:38.182Z,99774.88
2023-04-22T16:20:07.806Z,99779.69
2023-04-22T16:22:35.763Z,99779.56
2023-04-22T16:25:04.537Z,99777.91
2023-04-22T16:27:32.953Z,99784.38
2023-04-22T16:30:01.101Z,99794.41
2023-04-22T16:32:29.989Z,99780.47
2023-04-22T16:34:58.234Z,99789.75
2023-04-22T16:37:27.451Z,99783.47
2023-04-22T16:39:55.828Z,99787.31
2023-04-22T16:42:24.230Z,99793.88
2023-04-22T16:44:52.354Z,99790.16
2023-04-22T16:47:20.687Z,99788.53
2023-04-22T16:49:49.174Z,99787.91
2023-04-22T16:52:17.536Z,99797.66
2023-04-22T16:54:46.141Z,99801.88
2023-04-22T16:57:14.373Z,99796.56
2023-04-22T16:59:42.536Z,99793.28
2023-04-22T17:02:11.003Z,99808.25
2023-04-22T17:04:39.737Z,99810.06
2023-04-22T17:07:07.750Z,99814.22
2023-04-22T17:09:35.804Z,99819.66
2023-04-22T17:12:04.350Z,99824.66
2023-04-22T17:14:32.512Z,99825.03
2023-04-22T17:17:00.572Z,99822.12
2023-04-22T17:19:28.984Z,99824.03
2023-04-22T17:21:57.235Z,99832.19
2023-04-22T17:24:25.506Z,99837.97
2023-04-22T17:26:53.776Z,99846.69
2023-04-22T17:29:21.973Z,99841.59
2023-04-22T17:31:51.113Z,99839.25
2023-04-22T17:34:19.485Z,99843.56
2023-04-22T17:36:47.677Z,99852.56
2023-04-22T17:39:15.777Z,99863.44
2023-04-22T17:41:44.706Z,99841.87
2023-04-22T17:44:12.700Z,99834.25
2023-04-22T17:46:41.939Z,99854.34
2023-04-22T17:49:10.289Z,99860.31
2023-04-22T17:51:38.287Z,99865.44
2023-04-22T17:54:07.102Z,99855.22
2023-04-22T18:02:06.684Z,99868.53
2023-04-22T18:07:20.061Z,99868.19
2023-04-22T18:09:49.911Z,99871.19
2023-04-22T18:12:18.045Z,99866.53
2023-04-22T18:14:46.050Z,99869.09
2023-04-22T18:20:13.783Z,99874.38
2023-04-22T18:22:49.315Z,99878.06
2023-04-22T18:25:17.355Z,99880.63
2023-04-22T18:27:47.918Z,99893.06
2023-04-22T18:30:16.043Z,99884.56
2023-04-22T18:32:44.045Z,99887.28
2023-04-22T18:35:12.340Z,99881.41
2023-04-22T18:37:40.285Z,99876.50
2023-04-22T18:40:09.073Z,99898.28
2023-04-22T18:42:38.007Z,99897.53
2023-04-22T18:45:06.829Z,99882.34
2023-04-22T18:47:35.407Z,99888.84
2023-04-22T18:50:04.631Z,99893.50
2023-04-22T18:52:33.507Z,99899.03
2023-04-22T18:55:01.580Z,99896.06
2023-04-22T18:57:33.207Z,99894.91
2023-04-22T19:00:01.264Z,99896.75
2023-04-22T19:02:38.450Z,99895.97
2023-04-22T19:05:09.051Z,99899.38
2023-04-22T19:07:38.605Z,99898.09
2023-04-22T19:10:07.943Z,99908.91
2023-04-22T19:12:36.600Z,99908.44
2023-04-22T19:15:05.443Z,99912.22
2023-04-22T19:17:35.241Z,99920.03
2023-04-22T19:20:05.424Z,99926.44
2023-04-22T19:22:40.648Z,99911.31
2023-04-22T19:25:09.230Z,99922.44
2023-04-22T19:27:37.637Z,99918.75
2023-04-22T19:30:07.282Z,99920.59
2023-04-22T19:32:35.951Z,99924.75
2023-04-22T19:35:06.508Z,99934.28
2023-04-22T19:37:34.438Z,99924.41
2023-04-22T19:40:02.298Z,99923.34
2023-04-22T19:42:31.534Z,99938.69
2023-04-22T19:45:00.009Z,99940.84
2023-04-22T19:47:28.316Z,99935.28
2023-04-22T19:49:57.598Z,99941.19
2023-04-22T19:52:25.962Z,99922.16
2023-04-22T19:54:59.719Z,99939.66
2023-04-22T19:57:28.048Z,99933.84
2023-04-22T19:59:56.262Z,99941.31
2023-04-22T20:02:24.475Z,99946.91
2023-04-22T20:04:53.741Z,99944.09
2023-04-22T20:07:21.596Z,99940.69
2023-04-22T20:09:51.346Z,99942.88
2023-04-22T20:12:20.333Z,99945.81
2023-04-22T20:14:49.475Z,99940.69
2023-04-22T20:17:17.498Z,99942.06
2023-04-22T20:19:46.130Z,99940.03
2023-04-22T20:22:17.290Z,99955.22
2023-04-22T20:24:46.095Z,99959.72
2023-04-22T20:27:15.257Z,99953.31
2023-04-22T20:29:44.485Z,99957.84
2023-04-22T20:32:13.004Z,99945.06
2023-04-22T20:34:41.371Z,99951.38
2023-04-22T20:37:12.595Z,99956.53
2023-04-22T20:39:49.352Z,99957.38
2023-04-22T20:42:18.863Z,99963.59
2023-04-22T20:44:47.361Z,99966.25
2023-04-22T20:47:16.668Z,99942.94
2023-04-22T20:49:45.047Z,99964.50
2023-04-22T20:52:13.535Z,99951.78
2023-04-22T20:54:41.469Z,99958.00
2023-04-22T20:57:09.497Z,99964.22
2023-04-22T20:59:37.775Z,99970.87
2023-04-22T21:02:07.196Z,99970.91
2023-04-22T21:04:35.426Z,99974.53
2023-04-22T21:07:14.656Z,99973.03
2023-04-22T21:09:43.571Z,99981.88
2023-04-22T21:12:12.509Z,99989.50
2023-04-22T21:14:43.115Z,99986.97
2023-04-22T21:17:21.301Z,99991.88
2023-04-22T21:19:51.305Z,99983.59
2023-04-22T21:22:23.172Z,99989.38
2023-04-22T21:24:52.253Z,99983.28
2023-04-22T21:27:22.513Z,99979.00
2023-04-22T21:29:50.766Z,99982.31
2023-04-22T21:32:20.857Z,99987.25
2023-04-22T21:34:51.925Z,99985.72
2023-04-22T21:37:20.546Z,99983.09
2023-04-22T21:39:48.366Z,99989.94
2023-04-22T21:42:16.559Z,99993.22
2023-04-22T21:44:50.273Z,99989.47
2023-04-22T21:47:18.695Z,99985.97
2023-04-22T21:49:47.375Z,99987.41
2023-04-22T21:52:15.370Z,99995.44
2023-04-22T21:54:44.390Z,99994.13
2023-04-22T21:57:12.691Z,99973.53
2023-04-22T21:59:41.060Z,100000.09
2023-04-22T22:02:09.875Z,100009.84
2023-04-22T22:04:38.292Z,100013.50
2023-04-22T22:07:06.912Z,100006.37
2023-04-22T22:09:34.944Z,100011.88
2023-04-22T22:12:03.256Z,100012.63
2023-04-22T22:14:31.118Z,100012.50
2023-04-22T22:16:59.478Z,100021.25
2023-04-22T22:19:31.050Z,100013.72
2023-04-22T22:21:59.345Z,100017.09
2023-04-22T22:24:30.431Z,100019.66
2023-04-22T22:26:59.116Z,100023.56
2023-04-22T22:29:27.880Z,100022.66
2023-04-22T22:31:59.034Z,100031.44
2023-04-22T22:34:29.719Z,100032.44
2023-04-22T22:36:58.652Z,100029.09
2023-04-22T22:39:26.668Z,100030.31
2023-04-22T22:41:55.845Z,100028.75
2023-04-22T22:44:23.818Z,100030.91
2023-04-22T22:46:51.876Z,100029.09
2023-04-22T22:49:20.245Z,100022.81
2023-04-22T22:51:48.476Z,100033.94
2023-04-22T22:54:16.524Z,100039.00
2023-04-22T22:56:44.883Z,100033.69
2023-04-22T22:59:12.708Z,100038.94
2023-04-22T23:01:41.813Z,100041.81
2023-04-22T23:04:11.121Z,100038.22
2023-04-22T23:06:39.218Z,100047.50
2023-04-22T23:09:07.887Z,100042.28
2023-04-22T23:11:36.170Z,100043.97
2023-04-22T23:14:06.736Z,100036.41
2023-04-22T23:16:35.463Z,100040.44
2023-04-22T23:19:04.051Z,100021.47
2023-04-22T23:21:32.480Z,100062.47
2023-04-22T23:24:01.657Z,100056.63
2023-04-22T23:26:30.109Z,100055.50
2023-04-22T23:28:58.630Z,100059.16
2023-04-22T23:31:27.743Z,100055.56
2023-04-22T23:33:57.425Z,100058.59
2023-04-22T23:36:26.840Z,100053.56
2023-04-22T23:38:57.744Z,100057.78
2023-04-22T23:41:26.304Z,100057.69
2023-04-22T23:43:54.179Z,100056.16
2023-04-22T23:46:22.489Z,100063.59
2023-04-22T23:48:50.858Z,100051.38
2023-04-22T23:51:18.820Z,100064.50
2023-04-22T23:53:47.184Z,100063.59
2023-04-22T23:56:20.779Z,100068.84
2023-04-22T23:58:49.955Z,100065.78
